sensor_id;sensor_type;location;lat;lon;timestamp;P1;durP1;ratioP1;P2;durP2;ratioP2
8312;SDS011;4194;43.408;24.626;2023-03-03T00:01:22;37.73;;;25.03;;
8312;SDS011;4194;43.408;24.626;2023-03-03T00:03:50;37.83;;;25.80;;
8312;SDS011;4194;43.408;24.626;2023-03-03T00:06:16;40.63;;;28.00;;
8312;SDS011;4194;43.408;24.626;2023-03-03T00:08:42;42.33;;;26.33;;
8312;SDS011;4194;43.408;24.626;2023-03-03T00:11:08;38.83;;;24.63;;
8312;SDS011;4194;43.408;24.626;2023-03-03T00:13:43;42.37;;;26.67;;
8312;SDS011;4194;43.408;24.626;2023-03-03T00:16:10;38.80;;;26.30;;
8312;SDS011;4194;43.408;24.626;2023-03-03T00:18:40;33.50;;;22.40;;
8312;SDS011;4194;43.408;24.626;2023-03-03T00:21:41;35.50;;;25.27;;
8312;SDS011;4194;43.408;24.626;2023-03-03T00:26:54;36.10;;;24.10;;
8312;SDS011;4194;43.408;24.626;2023-03-03T00:34:48;35.93;;;23.47;;
8312;SDS011;4194;43.408;24.626;2023-03-03T00:37:31;38.57;;;23.60;;
8312;SDS011;4194;43.408;24.626;2023-03-03T00:42:44;34.80;;;22.30;;
8312;SDS011;4194;43.408;24.626;2023-03-03T00:45:25;33.47;;;23.27;;
8312;SDS011;4194;43.408;24.626;2023-03-03T00:47:52;39.13;;;23.63;;
8312;SDS011;4194;43.408;24.626;2023-03-03T00:50:33;37.43;;;23.50;;
8312;SDS011;4194;43.408;24.626;2023-03-03T00:55:30;35.83;;;23.07;;
8312;SDS011;4194;43.408;24.626;2023-03-03T00:57:56;34.13;;;22.07;;
8312;SDS011;4194;43.408;24.626;2023-03-03T01:00:22;37.10;;;23.70;;
8312;SDS011;4194;43.408;24.626;2023-03-03T01:02:48;36.30;;;24.67;;
8312;SDS011;4194;43.408;24.626;2023-03-03T01:05:15;40.43;;;24.97;;
8312;SDS011;4194;43.408;24.626;2023-03-03T01:07:42;37.70;;;24.93;;
8312;SDS011;4194;43.408;24.626;2023-03-03T01:10:07;35.00;;;24.63;;
8312;SDS011;4194;43.408;24.626;2023-03-03T01:12:34;38.30;;;26.53;;
8312;SDS011;4194;43.408;24.626;2023-03-03T01:15:00;36.20;;;25.27;;
8312;SDS011;4194;43.408;24.626;2023-03-03T01:17:26;34.70;;;24.07;;
8312;SDS011;4194;43.408;24.626;2023-03-03T01:19:52;37.90;;;25.37;;
8312;SDS011;4194;43.408;24.626;2023-03-03T01:22:18;37.50;;;25.03;;
8312;SDS011;4194;43.408;24.626;2023-03-03T01:24:44;39.20;;;25.67;;
8312;SDS011;4194;43.408;24.626;2023-03-03T01:27:09;37.50;;;24.50;;
8312;SDS011;4194;43.408;24.626;2023-03-03T01:29:35;40.80;;;24.50;;
8312;SDS011;4194;43.408;24.626;2023-03-03T01:32:00;35.50;;;25.27;;
8312;SDS011;4194;43.408;24.626;2023-03-03T01:34:26;39.03;;;26.67;;
8312;SDS011;4194;43.408;24.626;2023-03-03T01:36:52;43.33;;;28.27;;
8312;SDS011;4194;43.408;24.626;2023-03-03T01:39:17;39.00;;;25.83;;
8312;SDS011;4194;43.408;24.626;2023-03-03T01:41:43;46.70;;;31.10;;
8312;SDS011;4194;43.408;24.626;2023-03-03T01:44:10;43.07;;;27.90;;
8312;SDS011;4194;43.408;24.626;2023-03-03T01:46:41;41.20;;;26.87;;
8312;SDS011;4194;43.408;24.626;2023-03-03T01:49:28;39.40;;;26.90;;
8312;SDS011;4194;43.408;24.626;2023-03-03T01:52:09;37.97;;;25.50;;
8312;SDS011;4194;43.408;24.626;2023-03-03T01:55:24;43.57;;;26.93;;
8312;SDS011;4194;43.408;24.626;2023-03-03T01:58:00;40.83;;;26.63;;
8312;SDS011;4194;43.408;24.626;2023-03-03T02:00:31;40.50;;;28.03;;
8312;SDS011;4194;43.408;24.626;2023-03-03T02:02:58;43.13;;;27.83;;
8312;SDS011;4194;43.408;24.626;2023-03-03T02:05:24;40.53;;;25.50;;
8312;SDS011;4194;43.408;24.626;2023-03-03T02:07:50;42.10;;;25.67;;
8312;SDS011;4194;43.408;24.626;2023-03-03T02:10:17;40.73;;;25.57;;
8312;SDS011;4194;43.408;24.626;2023-03-03T02:15:20;42.07;;;25.77;;
8312;SDS011;4194;43.408;24.626;2023-03-03T02:17:49;40.73;;;25.47;;
8312;SDS011;4194;43.408;24.626;2023-03-03T02:20:25;41.57;;;26.63;;
8312;SDS011;4194;43.408;24.626;2023-03-03T02:23:14;35.40;;;24.23;;
8312;SDS011;4194;43.408;24.626;2023-03-03T02:25:49;37.13;;;24.90;;
8312;SDS011;4194;43.408;24.626;2023-03-03T02:28:19;37.70;;;24.97;;
8312;SDS011;4194;43.408;24.626;2023-03-03T02:30:46;36.83;;;24.70;;
8312;SDS011;4194;43.408;24.626;2023-03-03T02:33:12;36.53;;;23.90;;
8312;SDS011;4194;43.408;24.626;2023-03-03T02:35:38;38.50;;;23.97;;
8312;SDS011;4194;43.408;24.626;2023-03-03T02:38:11;39.40;;;22.93;;
8312;SDS011;4194;43.408;24.626;2023-03-03T02:43:38;40.03;;;29.30;;
8312;SDS011;4194;43.408;24.626;2023-03-03T02:46:07;34.83;;;25.03;;
8312;SDS011;4194;43.408;24.626;2023-03-03T02:48:33;35.70;;;24.57;;
8312;SDS011;4194;43.408;24.626;2023-03-03T02:50:59;36.17;;;24.10;;
8312;SDS011;4194;43.408;24.626;2023-03-03T02:53:25;39.63;;;24.53;;
8312;SDS011;4194;43.408;24.626;2023-03-03T02:55:51;34.77;;;23.80;;
8312;SDS011;4194;43.408;24.626;2023-03-03T02:58:17;33.90;;;23.80;;
8312;SDS011;4194;43.408;24.626;2023-03-03T03:00:43;34.60;;;22.97;;
8312;SDS011;4194;43.408;24.626;2023-03-03T03:03:11;36.53;;;24.20;;
8312;SDS011;4194;43.408;24.626;2023-03-03T03:05:37;34.23;;;23.00;;
8312;SDS011;4194;43.408;24.626;2023-03-03T03:10:54;39.17;;;23.97;;
8312;SDS011;4194;43.408;24.626;2023-03-03T03:13:21;34.90;;;23.00;;
8312;SDS011;4194;43.408;24.626;2023-03-03T03:15:48;36.47;;;24.73;;
8312;SDS011;4194;43.408;24.626;2023-03-03T03:18:14;34.53;;;23.33;;
8312;SDS011;4194;43.408;24.626;2023-03-03T03:20:40;37.40;;;23.47;;
8312;SDS011;4194;43.408;24.626;2023-03-03T03:23:07;35.97;;;23.57;;
8312;SDS011;4194;43.408;24.626;2023-03-03T03:25:33;37.37;;;24.47;;
8312;SDS011;4194;43.408;24.626;2023-03-03T03:27:59;38.57;;;23.27;;
8312;SDS011;4194;43.408;24.626;2023-03-03T03:30:25;39.40;;;24.43;;
8312;SDS011;4194;43.408;24.626;2023-03-03T03:32:51;37.70;;;24.97;;
8312;SDS011;4194;43.408;24.626;2023-03-03T03:35:17;43.27;;;25.40;;
8312;SDS011;4194;43.408;24.626;2023-03-03T03:37:43;38.70;;;25.90;;
8312;SDS011;4194;43.408;24.626;2023-03-03T03:40:09;33.20;;;23.27;;
8312;SDS011;4194;43.408;24.626;2023-03-03T03:42:35;43.30;;;24.40;;
8312;SDS011;4194;43.408;24.626;2023-03-03T03:45:04;41.33;;;26.40;;
8312;SDS011;4194;43.408;24.626;2023-03-03T03:47:31;41.33;;;25.63;;
8312;SDS011;4194;43.408;24.626;2023-03-03T03:49:56;44.93;;;26.07;;
8312;SDS011;4194;43.408;24.626;2023-03-03T03:52:22;45.30;;;26.33;;
8312;SDS011;4194;43.408;24.626;2023-03-03T03:54:48;42.17;;;26.93;;
8312;SDS011;4194;43.408;24.626;2023-03-03T03:57:14;42.93;;;25.40;;
8312;SDS011;4194;43.408;24.626;2023-03-03T03:59:39;46.13;;;27.50;;
8312;SDS011;4194;43.408;24.626;2023-03-03T04:02:05;44.23;;;27.17;;
8312;SDS011;4194;43.408;24.626;2023-03-03T04:04:31;51.30;;;26.63;;
8312;SDS011;4194;43.408;24.626;2023-03-03T04:06:57;41.70;;;26.40;;
8312;SDS011;4194;43.408;24.626;2023-03-03T04:09:23;43.50;;;26.97;;
8312;SDS011;4194;43.408;24.626;2023-03-03T04:11:49;40.20;;;25.53;;
8312;SDS011;4194;43.408;24.626;2023-03-03T04:14:15;37.43;;;24.07;;
8312;SDS011;4194;43.408;24.626;2023-03-03T04:16:41;36.70;;;24.50;;
8312;SDS011;4194;43.408;24.626;2023-03-03T04:19:07;38.20;;;23.87;;
8312;SDS011;4194;43.408;24.626;2023-03-03T04:21:32;36.30;;;23.80;;
8312;SDS011;4194;43.408;24.626;2023-03-03T04:23:58;34.33;;;21.43;;
8312;SDS011;4194;43.408;24.626;2023-03-03T04:26:24;32.60;;;21.27;;
8312;SDS011;4194;43.408;24.626;2023-03-03T04:28:50;34.77;;;22.27;;
8312;SDS011;4194;43.408;24.626;2023-03-03T04:31:16;36.17;;;23.80;;
8312;SDS011;4194;43.408;24.626;2023-03-03T04:33:43;37.40;;;23.37;;
8312;SDS011;4194;43.408;24.626;2023-03-03T04:36:09;34.40;;;22.83;;
8312;SDS011;4194;43.408;24.626;2023-03-03T04:38:35;33.53;;;22.20;;
8312;SDS011;4194;43.408;24.626;2023-03-03T04:41:01;34.23;;;22.97;;
8312;SDS011;4194;43.408;24.626;2023-03-03T04:43:27;34.43;;;24.47;;
8312;SDS011;4194;43.408;24.626;2023-03-03T04:45:53;34.30;;;22.43;;
8312;SDS011;4194;43.408;24.626;2023-03-03T04:48:18;38.37;;;23.27;;
8312;SDS011;4194;43.408;24.626;2023-03-03T04:50:44;32.90;;;22.63;;
8312;SDS011;4194;43.408;24.626;2023-03-03T04:53:10;34.40;;;23.37;;
8312;SDS011;4194;43.408;24.626;2023-03-03T04:55:36;34.33;;;23.80;;
8312;SDS011;4194;43.408;24.626;2023-03-03T04:58:02;33.93;;;23.33;;
8312;SDS011;4194;43.408;24.626;2023-03-03T05:00:28;40.47;;;25.17;;
8312;SDS011;4194;43.408;24.626;2023-03-03T05:02:54;38.93;;;24.50;;
8312;SDS011;4194;43.408;24.626;2023-03-03T05:05:20;40.13;;;24.37;;
8312;SDS011;4194;43.408;24.626;2023-03-03T05:07:46;46.13;;;25.07;;
8312;SDS011;4194;43.408;24.626;2023-03-03T05:10:11;51.90;;;28.03;;
8312;SDS011;4194;43.408;24.626;2023-03-03T05:12:37;52.73;;;28.23;;
8312;SDS011;4194;43.408;24.626;2023-03-03T05:15:04;48.10;;;26.97;;
8312;SDS011;4194;43.408;24.626;2023-03-03T05:17:30;48.70;;;27.00;;
8312;SDS011;4194;43.408;24.626;2023-03-03T05:19:56;59.23;;;28.43;;
8312;SDS011;4194;43.408;24.626;2023-03-03T05:22:22;57.40;;;29.57;;
8312;SDS011;4194;43.408;24.626;2023-03-03T05:24:48;47.27;;;27.23;;
8312;SDS011;4194;43.408;24.626;2023-03-03T05:27:14;48.20;;;27.07;;
8312;SDS011;4194;43.408;24.626;2023-03-03T05:29:40;60.53;;;29.50;;
8312;SDS011;4194;43.408;24.626;2023-03-03T05:32:06;66.30;;;30.23;;
8312;SDS011;4194;43.408;24.626;2023-03-03T05:34:32;58.40;;;29.13;;
8312;SDS011;4194;43.408;24.626;2023-03-03T05:36:58;54.73;;;29.67;;
8312;SDS011;4194;43.408;24.626;2023-03-03T05:39:24;53.73;;;29.77;;
8312;SDS011;4194;43.408;24.626;2023-03-03T05:41:49;68.07;;;31.67;;
8312;SDS011;4194;43.408;24.626;2023-03-03T05:44:15;70.43;;;32.73;;
8312;SDS011;4194;43.408;24.626;2023-03-03T05:46:41;68.50;;;33.43;;
8312;SDS011;4194;43.408;24.626;2023-03-03T05:49:07;68.20;;;32.30;;
8312;SDS011;4194;43.408;24.626;2023-03-03T05:51:33;67.30;;;31.93;;
8312;SDS011;4194;43.408;24.626;2023-03-03T05:53:58;71.20;;;32.97;;
8312;SDS011;4194;43.408;24.626;2023-03-03T05:56:24;74.03;;;34.63;;
8312;SDS011;4194;43.408;24.626;2023-03-03T05:58:50;93.77;;;35.67;;
8312;SDS011;4194;43.408;24.626;2023-03-03T06:01:15;77.93;;;35.13;;
8312;SDS011;4194;43.408;24.626;2023-03-03T06:03:41;73.47;;;35.50;;
8312;SDS011;4194;43.408;24.626;2023-03-03T06:06:07;69.20;;;34.13;;
8312;SDS011;4194;43.408;24.626;2023-03-03T06:08:33;71.40;;;35.77;;
8312;SDS011;4194;43.408;24.626;2023-03-03T06:10:59;77.50;;;36.07;;
8312;SDS011;4194;43.408;24.626;2023-03-03T06:13:25;69.20;;;33.73;;
8312;SDS011;4194;43.408;24.626;2023-03-03T06:15:51;73.13;;;33.57;;
8312;SDS011;4194;43.408;24.626;2023-03-03T06:18:16;74.67;;;33.97;;
8312;SDS011;4194;43.408;24.626;2023-03-03T06:20:42;76.67;;;34.97;;
8312;SDS011;4194;43.408;24.626;2023-03-03T06:23:08;71.73;;;33.50;;
8312;SDS011;4194;43.408;24.626;2023-03-03T06:25:33;82.83;;;34.90;;
8312;SDS011;4194;43.408;24.626;2023-03-03T06:28:00;77.23;;;32.57;;
8312;SDS011;4194;43.408;24.626;2023-03-03T06:30:26;72.83;;;35.77;;
8312;SDS011;4194;43.408;24.626;2023-03-03T06:32:54;72.57;;;34.33;;
8312;SDS011;4194;43.408;24.626;2023-03-03T06:35:20;79.97;;;34.47;;
8312;SDS011;4194;43.408;24.626;2023-03-03T06:37:46;81.00;;;35.67;;
8312;SDS011;4194;43.408;24.626;2023-03-03T06:40:14;80.13;;;35.20;;
8312;SDS011;4194;43.408;24.626;2023-03-03T06:42:40;75.77;;;35.60;;
8312;SDS011;4194;43.408;24.626;2023-03-03T06:45:06;74.90;;;35.33;;
8312;SDS011;4194;43.408;24.626;2023-03-03T06:47:32;73.80;;;36.93;;
8312;SDS011;4194;43.408;24.626;2023-03-03T06:49:58;88.00;;;35.23;;
8312;SDS011;4194;43.408;24.626;2023-03-03T06:52:25;78.50;;;34.87;;
8312;SDS011;4194;43.408;24.626;2023-03-03T06:54:52;82.03;;;36.17;;
8312;SDS011;4194;43.408;24.626;2023-03-03T06:57:22;92.47;;;39.33;;
8312;SDS011;4194;43.408;24.626;2023-03-03T06:59:54;90.73;;;35.30;;
8312;SDS011;4194;43.408;24.626;2023-03-03T07:02:23;88.47;;;35.97;;
8312;SDS011;4194;43.408;24.626;2023-03-03T07:04:49;82.77;;;35.33;;
8312;SDS011;4194;43.408;24.626;2023-03-03T07:07:18;104.13;;;37.80;;
8312;SDS011;4194;43.408;24.626;2023-03-03T07:09:46;87.93;;;37.93;;
8312;SDS011;4194;43.408;24.626;2023-03-03T07:12:14;103.30;;;38.83;;
8312;SDS011;4194;43.408;24.626;2023-03-03T07:14:43;101.83;;;36.50;;
8312;SDS011;4194;43.408;24.626;2023-03-03T07:17:17;104.30;;;39.17;;
8312;SDS011;4194;43.408;24.626;2023-03-03T07:19:44;93.90;;;36.67;;
8312;SDS011;4194;43.408;24.626;2023-03-03T07:22:15;101.13;;;36.87;;
8312;SDS011;4194;43.408;24.626;2023-03-03T07:24:43;100.23;;;37.07;;
8312;SDS011;4194;43.408;24.626;2023-03-03T07:27:18;108.20;;;36.57;;
8312;SDS011;4194;43.408;24.626;2023-03-03T07:29:51;92.53;;;37.80;;
8312;SDS011;4194;43.408;24.626;2023-03-03T07:32:27;93.20;;;37.63;;
8312;SDS011;4194;43.408;24.626;2023-03-03T07:35:30;82.77;;;33.70;;
8312;SDS011;4194;43.408;24.626;2023-03-03T07:38:22;106.93;;;35.03;;
8312;SDS011;4194;43.408;24.626;2023-03-03T07:40:54;93.13;;;35.87;;
8312;SDS011;4194;43.408;24.626;2023-03-03T07:43:28;80.80;;;34.27;;
8312;SDS011;4194;43.408;24.626;2023-03-03T07:46:02;91.50;;;36.17;;
8312;SDS011;4194;43.408;24.626;2023-03-03T07:48:49;94.40;;;35.67;;
8312;SDS011;4194;43.408;24.626;2023-03-03T07:56:38;86.67;;;34.17;;
8312;SDS011;4194;43.408;24.626;2023-03-03T08:02:08;89.93;;;36.00;;
8312;SDS011;4194;43.408;24.626;2023-03-03T08:04:58;85.03;;;34.03;;
8312;SDS011;4194;43.408;24.626;2023-03-03T08:07:24;77.27;;;32.83;;
8312;SDS011;4194;43.408;24.626;2023-03-03T08:09:59;79.87;;;33.23;;
8312;SDS011;4194;43.408;24.626;2023-03-03T08:12:41;68.20;;;32.17;;
8312;SDS011;4194;43.408;24.626;2023-03-03T08:15:25;76.60;;;34.03;;
8312;SDS011;4194;43.408;24.626;2023-03-03T08:17:53;80.13;;;32.00;;
8312;SDS011;4194;43.408;24.626;2023-03-03T08:22:55;61.73;;;32.10;;
8312;SDS011;4194;43.408;24.626;2023-03-03T08:25:21;71.50;;;32.80;;
8312;SDS011;4194;43.408;24.626;2023-03-03T08:27:47;65.97;;;32.03;;
8312;SDS011;4194;43.408;24.626;2023-03-03T08:30:13;75.43;;;31.70;;
8312;SDS011;4194;43.408;24.626;2023-03-03T08:32:39;74.53;;;34.80;;
8312;SDS011;4194;43.408;24.626;2023-03-03T08:35:05;73.43;;;35.07;;
8312;SDS011;4194;43.408;24.626;2023-03-03T08:37:30;74.23;;;33.37;;
8312;SDS011;4194;43.408;24.626;2023-03-03T08:39:56;73.60;;;32.87;;
8312;SDS011;4194;43.408;24.626;2023-03-03T08:42:22;75.53;;;34.40;;
8312;SDS011;4194;43.408;24.626;2023-03-03T08:44:48;81.50;;;35.53;;
8312;SDS011;4194;43.408;24.626;2023-03-03T08:47:13;75.10;;;33.00;;
8312;SDS011;4194;43.408;24.626;2023-03-03T08:49:39;83.73;;;34.87;;
8312;SDS011;4194;43.408;24.626;2023-03-03T08:52:05;68.77;;;32.90;;
8312;SDS011;4194;43.408;24.626;2023-03-03T08:54:30;82.67;;;33.80;;
8312;SDS011;4194;43.408;24.626;2023-03-03T08:56:56;79.03;;;34.33;;
8312;SDS011;4194;43.408;24.626;2023-03-03T08:59:22;64.00;;;32.20;;
8312;SDS011;4194;43.408;24.626;2023-03-03T09:01:47;65.37;;;30.70;;
8312;SDS011;4194;43.408;24.626;2023-03-03T09:04:13;73.97;;;33.33;;
8312;SDS011;4194;43.408;24.626;2023-03-03T09:06:39;71.93;;;32.80;;
8312;SDS011;4194;43.408;24.626;2023-03-03T09:09:05;67.47;;;32.10;;
8312;SDS011;4194;43.408;24.626;2023-03-03T09:11:32;69.27;;;31.43;;
8312;SDS011;4194;43.408;24.626;2023-03-03T09:14:11;60.07;;;30.70;;
8312;SDS011;4194;43.408;24.626;2023-03-03T09:16:39;70.97;;;33.63;;
8312;SDS011;4194;43.408;24.626;2023-03-03T09:19:42;64.93;;;31.23;;
8312;SDS011;4194;43.408;24.626;2023-03-03T09:22:02;63.27;;;32.57;;
8312;SDS011;4194;43.408;24.626;2023-03-03T09:24:43;73.30;;;33.90;;
8312;SDS011;4194;43.408;24.626;2023-03-03T09:27:43;77.40;;;33.13;;
8312;SDS011;4194;43.408;24.626;2023-03-03T09:30:11;70.43;;;33.07;;
8312;SDS011;4194;43.408;24.626;2023-03-03T09:32:47;66.90;;;31.87;;
8312;SDS011;4194;43.408;24.626;2023-03-03T09:37:51;70.47;;;31.77;;
8312;SDS011;4194;43.408;24.626;2023-03-03T09:48:48;75.20;;;31.73;;
8312;SDS011;4194;43.408;24.626;2023-03-03T09:51:35;62.20;;;32.07;;
8312;SDS011;4194;43.408;24.626;2023-03-03T09:54:43;72.33;;;32.07;;
8312;SDS011;4194;43.408;24.626;2023-03-03T09:57:28;77.30;;;32.53;;
8312;SDS011;4194;43.408;24.626;2023-03-03T10:02:42;76.23;;;33.50;;
8312;SDS011;4194;43.408;24.626;2023-03-03T10:05:18;71.37;;;33.80;;
8312;SDS011;4194;43.408;24.626;2023-03-03T10:13:40;68.50;;;34.43;;
8312;SDS011;4194;43.408;24.626;2023-03-03T10:16:40;75.80;;;33.00;;
8312;SDS011;4194;43.408;24.626;2023-03-03T10:21:55;76.57;;;34.67;;
8312;SDS011;4194;43.408;24.626;2023-03-03T10:24:41;75.00;;;36.77;;
8312;SDS011;4194;43.408;24.626;2023-03-03T10:57:25;62.30;;;32.53;;
8312;SDS011;4194;43.408;24.626;2023-03-03T11:00:20;62.90;;;30.67;;
8312;SDS011;4194;43.408;24.626;2023-03-03T11:06:17;67.47;;;31.10;;
8312;SDS011;4194;43.408;24.626;2023-03-03T11:08:54;65.37;;;31.77;;
8312;SDS011;4194;43.408;24.626;2023-03-03T11:11:58;60.93;;;31.27;;
8312;SDS011;4194;43.408;24.626;2023-03-03T11:14:29;65.63;;;33.83;;
8312;SDS011;4194;43.408;24.626;2023-03-03T11:16:59;58.70;;;33.17;;
8312;SDS011;4194;43.408;24.626;2023-03-03T11:31:44;48.47;;;26.80;;
8312;SDS011;4194;43.408;24.626;2023-03-03T11:36:52;49.77;;;28.10;;
8312;SDS011;4194;43.408;24.626;2023-03-03T11:39:23;47.37;;;28.17;;
8312;SDS011;4194;43.408;24.626;2023-03-03T11:41:57;45.33;;;26.47;;
8312;SDS011;4194;43.408;24.626;2023-03-03T11:44:45;47.83;;;26.93;;
8312;SDS011;4194;43.408;24.626;2023-03-03T11:47:23;50.73;;;27.30;;
8312;SDS011;4194;43.408;24.626;2023-03-03T11:50:00;50.40;;;26.87;;
8312;SDS011;4194;43.408;24.626;2023-03-03T11:52:37;45.67;;;27.80;;
8312;SDS011;4194;43.408;24.626;2023-03-03T11:55:21;52.30;;;28.83;;
8312;SDS011;4194;43.408;24.626;2023-03-03T12:06:01;49.40;;;26.47;;
8312;SDS011;4194;43.408;24.626;2023-03-03T12:09:15;55.23;;;28.97;;
8312;SDS011;4194;43.408;24.626;2023-03-03T12:11:47;52.80;;;26.57;;
8312;SDS011;4194;43.408;24.626;2023-03-03T12:26:15;54.83;;;28.83;;
8312;SDS011;4194;43.408;24.626;2023-03-03T12:28:54;60.87;;;29.13;;
8312;SDS011;4194;43.408;24.626;2023-03-03T12:31:40;60.20;;;28.93;;
8312;SDS011;4194;43.408;24.626;2023-03-03T12:37:22;58.17;;;29.63;;
8312;SDS011;4194;43.408;24.626;2023-03-03T12:40:37;55.83;;;28.37;;
8312;SDS011;4194;43.408;24.626;2023-03-03T12:48:42;50.83;;;27.43;;
8312;SDS011;4194;43.408;24.626;2023-03-03T12:59:13;60.23;;;30.07;;
8312;SDS011;4194;43.408;24.626;2023-03-03T13:04:46;50.47;;;28.60;;
8312;SDS011;4194;43.408;24.626;2023-03-03T13:07:18;51.57;;;27.20;;
8312;SDS011;4194;43.408;24.626;2023-03-03T13:15:31;55.20;;;27.97;;
8312;SDS011;4194;43.408;24.626;2023-03-03T13:21:03;55.73;;;29.50;;
8312;SDS011;4194;43.408;24.626;2023-03-03T13:24:01;43.97;;;24.97;;
8312;SDS011;4194;43.408;24.626;2023-03-03T13:26:54;44.77;;;26.50;;
8312;SDS011;4194;43.408;24.626;2023-03-03T13:29:35;40.70;;;22.50;;
8312;SDS011;4194;43.408;24.626;2023-03-03T13:34:57;39.27;;;24.10;;
8312;SDS011;4194;43.408;24.626;2023-03-03T13:37:57;47.07;;;26.50;;
8312;SDS011;4194;43.408;24.626;2023-03-03T13:40:42;52.50;;;26.70;;
8312;SDS011;4194;43.408;24.626;2023-03-03T13:58:09;50.17;;;28.63;;
8312;SDS011;4194;43.408;24.626;2023-03-03T14:06:50;54.50;;;30.70;;
8312;SDS011;4194;43.408;24.626;2023-03-03T14:09:17;52.50;;;31.93;;
8312;SDS011;4194;43.408;24.626;2023-03-03T14:12:20;50.03;;;30.33;;
8312;SDS011;4194;43.408;24.626;2023-03-03T14:15:17;53.47;;;28.73;;
8312;SDS011;4194;43.408;24.626;2023-03-03T14:17:54;48.67;;;28.47;;
8312;SDS011;4194;43.408;24.626;2023-03-03T14:20:29;44.70;;;27.33;;
8312;SDS011;4194;43.408;24.626;2023-03-03T14:28:29;44.67;;;26.83;;
8312;SDS011;4194;43.408;24.626;2023-03-03T14:31:08;44.67;;;25.90;;
8312;SDS011;4194;43.408;24.626;2023-03-03T14:33:39;46.07;;;27.03;;
8312;SDS011;4194;43.408;24.626;2023-03-03T14:36:35;53.23;;;27.73;;
8312;SDS011;4194;43.408;24.626;2023-03-03T14:39:22;44.67;;;27.20;;
8312;SDS011;4194;43.408;24.626;2023-03-03T14:41:49;45.47;;;27.00;;
8312;SDS011;4194;43.408;24.626;2023-03-03T14:44:25;44.13;;;27.10;;
8312;SDS011;4194;43.408;24.626;2023-03-03T14:47:00;46.03;;;27.10;;
8312;SDS011;4194;43.408;24.626;2023-03-03T14:49:40;44.93;;;27.00;;
8312;SDS011;4194;43.408;24.626;2023-03-03T14:54:44;43.07;;;26.63;;
8312;SDS011;4194;43.408;24.626;2023-03-03T14:57:57;43.33;;;27.53;;
8312;SDS011;4194;43.408;24.626;2023-03-03T15:02:37;47.00;;;28.10;;
8312;SDS011;4194;43.408;24.626;2023-03-03T15:05:21;46.57;;;27.70;;
8312;SDS011;4194;43.408;24.626;2023-03-03T15:16:28;48.83;;;27.97;;
8312;SDS011;4194;43.408;24.626;2023-03-03T15:21:25;47.10;;;26.43;;
8312;SDS011;4194;43.408;24.626;2023-03-03T15:32:13;50.93;;;29.70;;
8312;SDS011;4194;43.408;24.626;2023-03-03T15:34:45;49.30;;;30.37;;
8312;SDS011;4194;43.408;24.626;2023-03-03T15:39:57;46.50;;;29.63;;
8312;SDS011;4194;43.408;24.626;2023-03-03T15:42:36;53.17;;;30.73;;
8312;SDS011;4194;43.408;24.626;2023-03-03T15:45:20;51.77;;;31.53;;
8312;SDS011;4194;43.408;24.626;2023-03-03T15:59:03;49.27;;;29.87;;
8312;SDS011;4194;43.408;24.626;2023-03-03T16:01:34;51.93;;;29.63;;
8312;SDS011;4194;43.408;24.626;2023-03-03T16:04:08;48.97;;;30.07;;
8312;SDS011;4194;43.408;24.626;2023-03-03T16:12:38;51.80;;;31.30;;
8312;SDS011;4194;43.408;24.626;2023-03-03T16:14:57;54.30;;;31.57;;
8312;SDS011;4194;43.408;24.626;2023-03-03T16:17:40;51.83;;;31.73;;
8312;SDS011;4194;43.408;24.626;2023-03-03T16:20:32;55.13;;;30.00;;
8312;SDS011;4194;43.408;24.626;2023-03-03T16:25:38;51.47;;;30.57;;
8312;SDS011;4194;43.408;24.626;2023-03-03T16:34:22;56.53;;;30.90;;
8312;SDS011;4194;43.408;24.626;2023-03-03T16:36:57;55.23;;;33.30;;
8312;SDS011;4194;43.408;24.626;2023-03-03T16:42:12;58.17;;;34.03;;
8312;SDS011;4194;43.408;24.626;2023-03-03T17:18:09;54.03;;;31.53;;
8312;SDS011;4194;43.408;24.626;2023-03-03T17:20:50;60.23;;;32.93;;
8312;SDS011;4194;43.408;24.626;2023-03-03T17:25:48;61.07;;;32.37;;
8312;SDS011;4194;43.408;24.626;2023-03-03T17:34:02;54.30;;;31.43;;
8312;SDS011;4194;43.408;24.626;2023-03-03T17:41:42;55.57;;;32.33;;
8312;SDS011;4194;43.408;24.626;2023-03-03T17:44:40;55.33;;;30.90;;
8312;SDS011;4194;43.408;24.626;2023-03-03T17:47:18;57.60;;;32.17;;
8312;SDS011;4194;43.408;24.626;2023-03-03T17:50:03;53.37;;;29.80;;
8312;SDS011;4194;43.408;24.626;2023-03-03T17:52:46;55.00;;;31.13;;
8312;SDS011;4194;43.408;24.626;2023-03-03T17:59:00;56.73;;;31.87;;
8312;SDS011;4194;43.408;24.626;2023-03-03T18:22:06;63.63;;;35.10;;
8312;SDS011;4194;43.408;24.626;2023-03-03T18:32:39;53.57;;;30.97;;
8312;SDS011;4194;43.408;24.626;2023-03-03T18:38:17;57.43;;;29.57;;
8312;SDS011;4194;43.408;24.626;2023-03-03T18:46:09;50.72;;;29.63;;
8312;SDS011;4194;43.408;24.626;2023-03-03T18:48:50;49.00;;;26.47;;
8312;SDS011;4194;43.408;24.626;2023-03-03T19:02:17;44.53;;;24.63;;
8312;SDS011;4194;43.408;24.626;2023-03-03T19:04:50;51.47;;;25.40;;
8312;SDS011;4194;43.408;24.626;2023-03-03T19:07:25;55.23;;;26.80;;
8312;SDS011;4194;43.408;24.626;2023-03-03T19:12:56;45.37;;;23.80;;
8312;SDS011;4194;43.408;24.626;2023-03-03T19:20:50;43.27;;;24.83;;
8312;SDS011;4194;43.408;24.626;2023-03-03T19:23:29;44.37;;;22.67;;
8312;SDS011;4194;43.408;24.626;2023-03-03T19:29:17;45.80;;;25.37;;
8312;SDS011;4194;43.408;24.626;2023-03-03T19:31:52;38.53;;;22.83;;
8312;SDS011;4194;43.408;24.626;2023-03-03T19:34:41;42.30;;;23.30;;
8312;SDS011;4194;43.408;24.626;2023-03-03T19:43:07;43.23;;;22.07;;
8312;SDS011;4194;43.408;24.626;2023-03-03T19:48:52;39.50;;;21.87;;
8312;SDS011;4194;43.408;24.626;2023-03-03T19:51:34;41.30;;;20.50;;
8312;SDS011;4194;43.408;24.626;2023-03-03T19:57:09;40.43;;;21.83;;
8312;SDS011;4194;43.408;24.626;2023-03-03T19:59:59;41.07;;;22.10;;
8312;SDS011;4194;43.408;24.626;2023-03-03T20:05:26;40.30;;;21.90;;
8312;SDS011;4194;43.408;24.626;2023-03-03T20:10:46;45.47;;;23.33;;
8312;SDS011;4194;43.408;24.626;2023-03-03T20:19:01;38.60;;;21.83;;
8312;SDS011;4194;43.408;24.626;2023-03-03T20:21:37;36.43;;;21.03;;
8312;SDS011;4194;43.408;24.626;2023-03-03T20:27:19;39.27;;;21.33;;
8312;SDS011;4194;43.408;24.626;2023-03-03T20:30:15;40.97;;;22.23;;
8312;SDS011;4194;43.408;24.626;2023-03-03T20:51:04;39.80;;;22.17;;
8312;SDS011;4194;43.408;24.626;2023-03-03T20:56:27;36.83;;;20.03;;
8312;SDS011;4194;43.408;24.626;2023-03-03T20:59:14;37.27;;;20.73;;
8312;SDS011;4194;43.408;24.626;2023-03-03T21:04:32;37.90;;;22.13;;
8312;SDS011;4194;43.408;24.626;2023-03-03T21:07:00;37.23;;;20.53;;
8312;SDS011;4194;43.408;24.626;2023-03-03T21:09:31;31.67;;;19.23;;
8312;SDS011;4194;43.408;24.626;2023-03-03T21:12:07;30.03;;;19.27;;
8312;SDS011;4194;43.408;24.626;2023-03-03T21:14:35;37.20;;;21.40;;
8312;SDS011;4194;43.408;24.626;2023-03-03T21:17:10;34.73;;;20.43;;
8312;SDS011;4194;43.408;24.626;2023-03-03T21:19:47;33.97;;;20.27;;
8312;SDS011;4194;43.408;24.626;2023-03-03T21:22:13;35.23;;;20.80;;
8312;SDS011;4194;43.408;24.626;2023-03-03T21:25:12;42.83;;;22.57;;
8312;SDS011;4194;43.408;24.626;2023-03-03T21:30:02;38.80;;;22.43;;
8312;SDS011;4194;43.408;24.626;2023-03-03T21:32:35;34.63;;;20.60;;
8312;SDS011;4194;43.408;24.626;2023-03-03T21:35:04;37.97;;;20.67;;
8312;SDS011;4194;43.408;24.626;2023-03-03T21:37:46;41.83;;;20.97;;
8312;SDS011;4194;43.408;24.626;2023-03-03T21:42:47;42.23;;;23.23;;
8312;SDS011;4194;43.408;24.626;2023-03-03T21:45:14;40.57;;;24.47;;